Kabala Airport

Jump to: basic info | weather | comments

Related pages: nearby airports | nearby navaids | notams | map

Basic information (top)

Codes: KBA GFKB
Location: lon 9.638323, lat -11.515560, elev 1,012 ft / 308 m msl
Status: small_airport
Scheduled airline service: no
Links: Wikipedia Mobile

Weather (top)

Current conditions for Lungi International Airport 117nm (217km) WSW (rec'd 2014/04/19 03:00Z):

GFLL 190300Z 28014KT CAVOK 27/23 Q1009

Airport forecast for Lungi International Airport 117nm (217km) WSW (rec'd 2014/04/18 06:00Z):

TAF GFLL 180400Z 1806/1912 30008KT 9999 TS SCT013 FEW024CB 
      BECMG 1808/1810 24004KT 9999 BKN012 
      TEMPO 1812/1817 28006KT 9999 FEW025CB 
      BECMG 1820/1822 29007KT 9999 
      TEMPO 1903/1905 3000 BR SCT014

Latest comments (top)

No comments yet for Kabala Airport

More... (top)

See also NOTAMs and nearby airports and navaids, or visit the Kabala Airport page at the main OurAirports website..